Time;durP1;ratioP1;P1;durP2;ratioP2;P2;SDS_P1;SDS_P2;PMS_P1;PMS_P2;Temp;Humidity;BMP_temperature;BMP_pressure;BME280_temperature;BME280_humidity;BME280_pressure;Samples;Min_cycle;Max_cycle;Signal;HPM_P1;HPM_P2
2022/05/08 00:01:42;;;;;;;;;;;16.00;95.10;;;;;;5029079;28;19928;-67
2022/05/08 00:04:07;;;;;;;;;;;16.00;95.00;;;;;;5030522;28;19913;-68
2022/05/08 00:06:33;;;;;;;;;;;16.00;95.10;;;;;;5033444;28;19910;-66
2022/05/08 00:09:00;;;;;;;;;;;16.00;95.50;;;;;;5028534;28;20417;-70
2022/05/08 00:11:25;;;;;;;;;;;15.90;95.50;;;;;;5030875;28;20297;-67
2022/05/08 00:13:51;;;;;;;;;;;15.90;95.30;;;;;;5032193;28;19913;-68
2022/05/08 00:16:16;;;;;;;;;;;15.80;95.40;;;;;;5032808;28;19913;-68
2022/05/08 00:18:42;;;;;;;;;;;15.80;95.70;;;;;;5032273;28;19952;-68
2022/05/08 00:21:07;;;;;;;;;;;15.80;95.70;;;;;;5030431;28;19917;-68
2022/05/08 00:23:33;;;;;;;;;;;15.70;96.20;;;;;;5038909;28;19913;-66
2022/05/08 00:25:58;;;;;;;;;;;15.70;96.20;;;;;;5039697;28;20016;-67
2022/05/08 00:28:25;;;;;;;;;;;15.60;96.20;;;;;;5029776;28;20941;-66
2022/05/08 00:30:50;;;;;;;;;;;15.60;96.70;;;;;;5030293;28;20013;-67
2022/05/08 00:33:16;;;;;;;;;;;15.60;96.80;;;;;;5031503;28;20388;-67
2022/05/08 00:35:41;;;;;;;;;;;15.50;96.50;;;;;;5030625;28;19919;-67
2022/05/08 00:38:08;;;;;;;;;;;15.50;96.70;;;;;;5027574;28;20043;-67
2022/05/08 00:40:35;;;;;;;;;;;15.50;97.10;;;;;;5027831;28;19975;-67
2022/05/08 00:43:19;;;;;;;;;;;15.50;97.20;;;;;;5028296;28;19921;-68
2022/05/08 00:45:45;;;;;;;;;;;15.50;97.10;;;;;;5031566;28;19914;-67
2022/05/08 00:48:10;;;;;;;;;;;15.40;97.40;;;;;;5032516;28;19921;-67
2022/05/08 00:50:36;;;;;;;;;;;15.40;97.10;;;;;;5031252;28;20020;-65
2022/05/08 00:53:01;;;;;;;;;;;15.40;97.50;;;;;;5027699;28;20336;-66
2022/05/08 00:55:28;;;;;;;;;;;15.30;97.50;;;;;;5029448;28;20409;-67
2022/05/08 00:57:53;;;;;;;;;;;15.30;97.70;;;;;;5029072;28;19909;-68
2022/05/08 01:00:19;;;;;;;;;;;15.30;98.00;;;;;;5031432;28;19917;-68
2022/05/08 01:02:46;;;;;;;;;;;15.20;98.50;;;;;;5027647;28;19913;-68
2022/05/08 01:05:12;;;;;;;;;;;15.10;98.30;;;;;;5028704;28;19913;-67
2022/05/08 01:07:37;;;;;;;;;;;15.10;98.30;;;;;;5031103;28;19982;-67
2022/05/08 01:10:03;;;;;;;;;;;15.20;98.60;;;;;;5031817;28;19959;-66
2022/05/08 01:12:32;;;;;;;;;;;15.10;98.50;;;;;;5032502;28;19959;-67
2022/05/08 01:15:14;;;;;;;;;;;15.10;98.70;;;;;;5028056;28;19959;-67
2022/05/08 01:17:40;;;;;;;;;;;15.10;98.70;;;;;;5030607;28;19935;-66
2022/05/08 01:20:06;;;;;;;;;;;15.00;99.00;;;;;;5028326;28;20428;-67
2022/05/08 01:22:32;;;;;;;;;;;15.00;99.30;;;;;;5030614;28;20016;-68
2022/05/08 01:24:57;;;;;;;;;;;14.90;99.30;;;;;;5030507;28;19920;-68
2022/05/08 01:27:23;;;;;;;;;;;14.90;99.40;;;;;;5031860;28;19909;-68
2022/05/08 01:29:49;;;;;;;;;;;14.90;99.40;;;;;;5038174;28;20005;-68
2022/05/08 01:32:14;;;;;;;;;;;14.90;99.60;;;;;;5035286;28;19917;-69
2022/05/08 01:34:40;;;;;;;;;;;14.80;99.90;;;;;;5030880;28;19916;-69
2022/05/08 01:37:05;;;;;;;;;;;14.80;99.90;;;;;;5045575;28;19946;-68
2022/05/08 01:39:30;;;;;;;;;;;14.80;99.90;;;;;;5031742;28;19909;-69
2022/05/08 01:41:56;;;;;;;;;;;14.70;99.90;;;;;;5030632;28;19928;-69
2022/05/08 01:44:24;;;;;;;;;;;14.70;99.90;;;;;;5026645;28;19958;-68
2022/05/08 01:48:21;;;;;;;;;;;14.60;99.90;;;;;;5030225;28;19917;-65
2022/05/08 01:49:35;;;;;;;;;;;14.60;99.90;;;;;;5025969;28;20424;-67
2022/05/08 01:52:00;;;;;;;;;;;14.60;99.90;;;;;;5026888;28;19917;-67
2022/05/08 01:54:26;;;;;;;;;;;14.60;99.90;;;;;;5030931;28;19917;-68
2022/05/08 01:56:51;;;;;;;;;;;14.50;99.90;;;;;;5028152;28;19917;-67
2022/05/08 01:59:17;;;;;;;;;;;14.50;99.90;;;;;;5030671;28;20032;-66
2022/05/08 02:01:43;;;;;;;;;;;14.50;99.90;;;;;;5026909;28;19921;-67
2022/05/08 02:04:15;;;;;;;;;;;14.50;99.90;;;;;;5027404;28;20355;-69
2022/05/08 02:06:43;;;;;;;;;;;14.40;99.90;;;;;;5030435;28;20403;-68
2022/05/08 02:09:09;;;;;;;;;;;14.40;99.90;;;;;;5030483;28;20003;-66
2022/05/08 02:11:34;;;;;;;;;;;14.40;99.90;;;;;;5028265;28;20008;-69
2022/05/08 02:14:00;;;;;;;;;;;14.40;99.90;;;;;;5030353;28;20004;-67
2022/05/08 02:16:25;;;;;;;;;;;14.30;99.90;;;;;;5026444;28;19920;-67
2022/05/08 02:18:51;;;;;;;;;;;14.30;99.90;;;;;;5028755;28;19955;-66
2022/05/08 02:21:17;;;;;;;;;;;14.30;99.90;;;;;;5029237;28;19971;-66
2022/05/08 02:23:42;;;;;;;;;;;14.30;99.90;;;;;;5026694;28;19913;-65
2022/05/08 02:26:08;;;;;;;;;;;14.20;99.90;;;;;;5026578;28;19913;-66
2022/05/08 02:28:34;;;;;;;;;;;14.20;99.90;;;;;;5020788;28;19913;-65
2022/05/08 02:30:59;;;;;;;;;;;14.20;99.90;;;;;;5029934;28;19959;-66
2022/05/08 02:33:25;;;;;;;;;;;14.10;99.90;;;;;;5030973;28;19916;-65
2022/05/08 02:35:50;;;;;;;;;;;14.10;99.90;;;;;;5039659;28;19916;-66
2022/05/08 02:38:16;;;;;;;;;;;14.10;99.90;;;;;;5047252;28;19913;-67
2022/05/08 02:40:41;;;;;;;;;;;14.10;99.90;;;;;;5036397;28;19928;-66
2022/05/08 02:43:07;;;;;;;;;;;14.10;99.90;;;;;;5025104;28;19914;-67
2022/05/08 02:45:32;;;;;;;;;;;14.00;99.90;;;;;;5031443;28;19956;-67
2022/05/08 02:47:58;;;;;;;;;;;14.00;99.90;;;;;;5029151;28;20421;-67
2022/05/08 02:50:24;;;;;;;;;;;13.90;99.90;;;;;;5030059;28;19913;-67
2022/05/08 02:52:50;;;;;;;;;;;13.90;99.90;;;;;;5026367;28;20293;-67
2022/05/08 03:00:45;;;;;;;;;;;13.80;99.90;;;;;;5030180;28;20013;-66
2022/05/08 03:03:10;;;;;;;;;;;13.70;99.90;;;;;;5030824;28;19909;-67
2022/05/08 03:05:36;;;;;;;;;;;13.70;99.90;;;;;;5033561;28;19917;-66
2022/05/08 03:08:02;;;;;;;;;;;13.70;99.90;;;;;;5029860;28;20000;-68
2022/05/08 03:10:28;;;;;;;;;;;13.70;99.90;;;;;;5031624;28;19917;-66
2022/05/08 03:12:54;;;;;;;;;;;13.70;99.90;;;;;;5033343;28;20051;-68
2022/05/08 03:15:19;;;;;;;;;;;13.70;99.90;;;;;;5034421;28;20011;-68
2022/05/08 03:17:45;;;;;;;;;;;13.60;99.90;;;;;;5028784;28;19920;-65
2022/05/08 03:20:11;;;;;;;;;;;13.60;99.90;;;;;;5031221;28;20476;-69
2022/05/08 03:22:37;;;;;;;;;;;13.50;99.90;;;;;;5029885;28;19924;-65
2022/05/08 03:25:02;;;;;;;;;;;13.50;99.90;;;;;;5033033;28;19921;-68
2022/05/08 03:27:30;;;;;;;;;;;13.40;99.90;;;;;;5034140;28;19913;-65
2022/05/08 03:29:56;;;;;;;;;;;13.40;99.90;;;;;;5031070;28;19968;-66
2022/05/08 03:32:21;;;;;;;;;;;13.40;99.90;;;;;;5038511;28;20377;-69
2022/05/08 03:34:47;;;;;;;;;;;13.30;99.90;;;;;;5038518;28;20000;-67
2022/05/08 03:37:12;;;;;;;;;;;13.40;99.90;;;;;;5035591;28;20373;-69
2022/05/08 03:39:38;;;;;;;;;;;13.30;99.90;;;;;;5051565;28;19963;-66
2022/05/08 03:42:03;;;;;;;;;;;13.20;99.90;;;;;;5029344;28;19917;-67
2022/05/08 03:44:29;;;;;;;;;;;13.20;99.90;;;;;;5028136;28;19924;-67
2022/05/08 03:46:54;;;;;;;;;;;13.10;99.90;;;;;;5030337;28;19913;-67
2022/05/08 03:49:20;;;;;;;;;;;13.10;99.90;;;;;;5031406;28;19925;-68
2022/05/08 03:51:45;;;;;;;;;;;13.00;99.90;;;;;;5032627;28;19963;-65
2022/05/08 03:54:11;;;;;;;;;;;13.00;99.90;;;;;;5030525;28;19909;-68
2022/05/08 03:56:36;;;;;;;;;;;13.00;99.90;;;;;;5036532;28;19999;-67
2022/05/08 03:59:02;;;;;;;;;;;12.90;99.90;;;;;;5035311;28;19920;-66
2022/05/08 04:01:27;;;;;;;;;;;12.90;99.90;;;;;;5022291;28;20498;-66
2022/05/08 04:03:52;;;;;;;;;;;12.90;99.90;;;;;;5029862;28;19941;-68
2022/05/08 04:06:18;;;;;;;;;;;12.80;99.90;;;;;;5032460;28;20408;-68
2022/05/08 04:08:44;;;;;;;;;;;12.80;99.90;;;;;;5027762;28;19949;-67
2022/05/08 04:11:10;;;;;;;;;;;12.80;99.90;;;;;;5029470;28;20000;-68
2022/05/08 04:13:35;;;;;;;;;;;12.80;99.90;;;;;;5027439;28;20339;-67
2022/05/08 04:16:16;;;;;;;;;;;12.80;99.90;;;;;;5046892;28;19921;-67
2022/05/08 04:18:41;;;;;;;;;;;12.80;99.90;;;;;;5031761;28;19909;-67
2022/05/08 04:21:07;;;;;;;;;;;12.80;99.90;;;;;;5029927;28;19922;-66
2022/05/08 04:26:16;;;;;;;;;;;12.80;99.90;;;;;;5027520;28;20005;-66
2022/05/08 04:28:42;;;;;;;;;;;12.80;99.90;;;;;;5029614;28;20356;-69
2022/05/08 04:31:07;;;;;;;;;;;12.80;99.90;;;;;;5028040;28;19917;-69
2022/05/08 04:33:33;;;;;;;;;;;12.80;99.90;;;;;;5033200;28;19914;-68
2022/05/08 04:35:58;;;;;;;;;;;12.80;99.90;;;;;;5031753;28;20580;-67
2022/05/08 04:38:24;;;;;;;;;;;12.80;99.90;;;;;;5042547;28;20003;-68
2022/05/08 04:40:49;;;;;;;;;;;12.80;99.90;;;;;;5037120;28;19944;-67
2022/05/08 04:43:15;;;;;;;;;;;12.80;99.90;;;;;;5031649;28;19920;-69
2022/05/08 04:45:40;;;;;;;;;;;12.80;99.90;;;;;;5031408;28;19916;-66
2022/05/08 04:48:06;;;;;;;;;;;12.80;99.90;;;;;;5030982;28;19921;-64
2022/05/08 04:50:31;;;;;;;;;;;12.80;99.90;;;;;;5027497;28;20374;-66
2022/05/08 04:52:57;;;;;;;;;;;12.80;99.90;;;;;;5030650;28;20311;-66
2022/05/08 04:55:22;;;;;;;;;;;12.80;99.90;;;;;;5029451;28;20013;-65
2022/05/08 04:57:48;;;;;;;;;;;12.80;99.90;;;;;;5029740;28;19913;-68
2022/05/08 05:00:13;;;;;;;;;;;12.80;99.90;;;;;;5029885;28;19960;-66
2022/05/08 05:02:39;;;;;;;;;;;12.80;99.90;;;;;;5028279;28;19921;-66
2022/05/08 05:05:06;;;;;;;;;;;12.90;99.90;;;;;;5028959;28;19936;-67
2022/05/08 05:07:31;;;;;;;;;;;12.90;99.90;;;;;;5028049;28;19913;-67
2022/05/08 05:09:57;;;;;;;;;;;12.90;99.90;;;;;;5030483;28;20456;-66
2022/05/08 05:12:23;;;;;;;;;;;12.90;99.90;;;;;;5030797;28;19909;-67
2022/05/08 05:14:48;;;;;;;;;;;12.90;99.90;;;;;;5029162;28;19924;-67
2022/05/08 05:17:14;;;;;;;;;;;12.90;99.90;;;;;;5027157;28;19913;-67
2022/05/08 05:19:39;;;;;;;;;;;12.90;99.90;;;;;;5027829;28;19913;-68
2022/05/08 05:22:05;;;;;;;;;;;12.90;99.90;;;;;;5031445;28;19945;-66
2022/05/08 05:24:30;;;;;;;;;;;12.90;99.90;;;;;;5030761;28;20351;-66
2022/05/08 05:26:56;;;;;;;;;;;13.00;99.90;;;;;;5026463;28;19920;-67
2022/05/08 05:29:22;;;;;;;;;;;13.00;99.90;;;;;;5029689;28;19920;-66
2022/05/08 05:31:47;;;;;;;;;;;13.00;99.90;;;;;;5030872;28;19913;-65
2022/05/08 05:34:13;;;;;;;;;;;13.00;99.90;;;;;;5027367;28;20291;-66
2022/05/08 05:36:38;;;;;;;;;;;13.00;99.90;;;;;;5031466;28;20490;-68
2022/05/08 05:39:04;;;;;;;;;;;13.00;99.90;;;;;;5047456;28;20015;-67
2022/05/08 05:41:29;;;;;;;;;;;13.00;99.90;;;;;;5034102;28;20432;-66
2022/05/08 05:43:55;;;;;;;;;;;13.00;99.90;;;;;;5026772;28;20365;-67
2022/05/08 05:49:04;;;;;;;;;;;13.00;99.90;;;;;;5026816;28;19932;-67
2022/05/08 05:51:29;;;;;;;;;;;13.00;99.90;;;;;;5031695;28;19913;-66
2022/05/08 05:53:55;;;;;;;;;;;13.00;99.90;;;;;;5039150;28;19958;-68
2022/05/08 05:56:20;;;;;;;;;;;13.00;99.90;;;;;;5035554;28;19913;-65
2022/05/08 05:58:46;;;;;;;;;;;13.00;99.90;;;;;;5026442;28;19914;-66
2022/05/08 06:01:11;;;;;;;;;;;13.00;99.90;;;;;;5027173;28;19964;-66
2022/05/08 06:03:38;;;;;;;;;;;13.00;99.90;;;;;;5031104;28;19917;-65
2022/05/08 06:06:04;;;;;;;;;;;13.00;99.90;;;;;;5028784;28;19913;-65
2022/05/08 06:08:29;;;;;;;;;;;13.00;99.90;;;;;;5026015;28;19917;-63
2022/05/08 06:10:55;;;;;;;;;;;13.10;99.90;;;;;;5028175;28;20290;-63
2022/05/08 06:13:21;;;;;;;;;;;13.10;99.90;;;;;;5027178;28;19951;-66
2022/05/08 06:15:47;;;;;;;;;;;13.10;99.90;;;;;;5030114;28;19913;-65
2022/05/08 06:18:12;;;;;;;;;;;13.10;99.90;;;;;;5045708;28;19911;-66
2022/05/08 06:20:38;;;;;;;;;;;13.10;99.90;;;;;;5031384;28;19976;-67
2022/05/08 06:23:04;;;;;;;;;;;13.10;99.90;;;;;;5029962;28;19916;-67
2022/05/08 06:25:29;;;;;;;;;;;13.10;99.90;;;;;;5029628;28;20311;-66
2022/05/08 06:27:56;;;;;;;;;;;13.10;99.90;;;;;;5029871;28;19978;-66
2022/05/08 06:30:21;;;;;;;;;;;13.10;99.90;;;;;;5030004;28;20397;-65
2022/05/08 06:32:47;;;;;;;;;;;13.20;99.90;;;;;;5026162;28;19914;-64
2022/05/08 06:35:12;;;;;;;;;;;13.20;99.90;;;;;;5031542;28;19917;-65
2022/05/08 06:37:37;;;;;;;;;;;13.20;99.90;;;;;;5031379;28;20377;-66
2022/05/08 06:40:03;;;;;;;;;;;13.20;99.90;;;;;;5049113;28;19921;-61
2022/05/08 06:42:30;;;;;;;;;;;13.30;99.90;;;;;;5024694;28;19917;-63
2022/05/08 06:44:56;;;;;;;;;;;13.40;99.90;;;;;;5047632;28;19935;-65
2022/05/08 06:47:21;;;;;;;;;;;13.40;99.90;;;;;;5036885;28;20302;-62
2022/05/08 06:49:47;;;;;;;;;;;13.50;99.90;;;;;;5036915;28;19917;-63
2022/05/08 06:52:12;;;;;;;;;;;13.50;99.90;;;;;;5034736;28;19983;-64
2022/05/08 06:54:37;;;;;;;;;;;13.50;99.90;;;;;;5037097;28;19916;-62
2022/05/08 06:57:03;;;;;;;;;;;13.50;99.90;;;;;;5035537;28;19909;-62
2022/05/08 07:02:13;;;;;;;;;;;13.60;99.90;;;;;;5033039;28;20321;-63
2022/05/08 07:04:39;;;;;;;;;;;13.60;99.90;;;;;;5035219;28;20417;-63
2022/05/08 07:07:04;;;;;;;;;;;13.70;99.90;;;;;;5032537;28;19960;-62
2022/05/08 07:09:32;;;;;;;;;;;13.70;99.90;;;;;;5035020;28;19924;-61
2022/05/08 07:11:58;;;;;;;;;;;13.70;99.90;;;;;;5046286;28;19913;-62
2022/05/08 07:14:23;;;;;;;;;;;13.70;99.90;;;;;;5038102;28;19946;-62
2022/05/08 07:16:49;;;;;;;;;;;13.70;99.90;;;;;;5035563;28;20003;-62
2022/05/08 07:19:14;;;;;;;;;;;13.60;99.90;;;;;;5042605;28;20052;-62
2022/05/08 07:21:40;;;;;;;;;;;13.60;99.90;;;;;;5043389;28;20423;-61
2022/05/08 07:24:06;;;;;;;;;;;13.70;99.90;;;;;;5041707;28;20293;-57
2022/05/08 07:26:31;;;;;;;;;;;13.70;99.90;;;;;;5032478;28;20443;-59
2022/05/08 07:28:57;;;;;;;;;;;13.70;99.90;;;;;;5023110;28;19917;-58
2022/05/08 07:31:24;;;;;;;;;;;13.70;99.90;;;;;;5023559;28;20341;-56
2022/05/08 07:36:12;;;;;;;;;;;13.70;99.90;;;;;;5027850;28;19917;-59
2022/05/08 07:36:35;;;;;;;;;;;13.70;99.90;;;;;;5030229;28;19918;-58
2022/05/08 07:39:01;;;;;;;;;;;13.70;99.90;;;;;;5025460;28;19914;-58
2022/05/08 07:41:27;;;;;;;;;;;13.60;99.90;;;;;;5023913;28;19929;-58
2022/05/08 07:43:53;;;;;;;;;;;13.60;99.90;;;;;;5026152;28;20012;-60
2022/05/08 07:46:18;;;;;;;;;;;13.70;99.90;;;;;;5022416;28;19921;-59
2022/05/08 07:48:45;;;;;;;;;;;13.70;99.90;;;;;;5024899;28;20322;-58
2022/05/08 07:51:11;;;;;;;;;;;13.70;99.90;;;;;;5026955;28;19913;-57
2022/05/08 07:53:36;;;;;;;;;;;13.70;99.90;;;;;;5030116;28;20726;-57
2022/05/08 07:56:02;;;;;;;;;;;13.70;99.90;;;;;;5026462;28;19920;-58
2022/05/08 07:58:28;;;;;;;;;;;13.60;99.90;;;;;;5020822;28;20381;-59
2022/05/08 08:00:54;;;;;;;;;;;13.70;99.90;;;;;;5026658;28;19932;-57
2022/05/08 08:03:20;;;;;;;;;;;13.70;99.90;;;;;;5026882;28;19917;-58
2022/05/08 08:05:45;;;;;;;;;;;13.80;99.90;;;;;;5023415;28;19919;-57
2022/05/08 08:08:12;;;;;;;;;;;13.80;99.90;;;;;;5024868;28;19913;-58
2022/05/08 08:10:38;;;;;;;;;;;13.90;99.90;;;;;;5022889;28;20469;-59
2022/05/08 08:13:03;;;;;;;;;;;13.90;99.90;;;;;;5018843;28;20045;-58
2022/05/08 08:15:29;;;;;;;;;;;14.00;99.90;;;;;;5027548;28;19917;-58
2022/05/08 08:17:54;;;;;;;;;;;14.00;99.90;;;;;;5022937;28;20279;-58
2022/05/08 08:20:20;;;;;;;;;;;14.00;99.90;;;;;;5022795;28;19964;-58
2022/05/08 08:22:45;;;;;;;;;;;14.00;99.90;;;;;;5020417;28;20039;-58
2022/05/08 08:25:11;;;;;;;;;;;14.00;99.90;;;;;;5023567;28;20026;-55
2022/05/08 08:27:36;;;;;;;;;;;14.10;99.90;;;;;;5029909;28;19913;-58
2022/05/08 08:30:03;;;;;;;;;;;14.10;99.90;;;;;;5022620;28;19921;-58
2022/05/08 08:32:30;;;;;;;;;;;14.10;99.90;;;;;;5020914;28;20353;-57
2022/05/08 08:34:56;;;;;;;;;;;14.10;99.90;;;;;;5024824;28;19914;-55
2022/05/08 08:37:22;;;;;;;;;;;14.10;99.90;;;;;;5021045;28;19917;-57
2022/05/08 08:39:48;;;;;;;;;;;14.10;99.90;;;;;;5020458;28;20325;-58
2022/05/08 08:42:28;;;;;;;;;;;14.20;99.90;;;;;;5023851;28;19929;-55
2022/05/08 08:47:45;;;;;;;;;;;14.30;99.90;;;;;;5023731;28;19975;-56
2022/05/08 08:50:11;;;;;;;;;;;14.40;99.90;;;;;;5020895;28;19917;-56
2022/05/08 08:52:37;;;;;;;;;;;14.40;99.90;;;;;;5022481;28;19914;-57
2022/05/08 08:55:05;;;;;;;;;;;14.50;99.90;;;;;;5021251;28;19920;-58
2022/05/08 08:57:31;;;;;;;;;;;14.50;99.90;;;;;;5054248;28;19913;-54
2022/05/08 08:59:56;;;;;;;;;;;14.40;99.90;;;;;;5021860;28;20362;-57
2022/05/08 09:02:22;;;;;;;;;;;14.50;99.90;;;;;;5024605;28;20382;-58
2022/05/08 09:04:49;;;;;;;;;;;14.50;99.90;;;;;;5024541;28;19913;-59
2022/05/08 09:07:33;;;;;;;;;;;14.50;99.90;;;;;;5018742;28;20023;-58
2022/05/08 09:10:26;;;;;;;;;;;14.50;99.90;;;;;;5026346;28;19983;-58
2022/05/08 09:12:51;;;;;;;;;;;14.60;99.90;;;;;;5019191;28;19917;-58
2022/05/08 09:15:20;;;;;;;;;;;14.60;99.90;;;;;;5023789;28;20043;-58
2022/05/08 09:17:47;;;;;;;;;;;14.60;99.90;;;;;;5026649;28;20019;-57
2022/05/08 09:20:23;;;;;;;;;;;14.60;99.90;;;;;;5024806;28;19966;-59
2022/05/08 09:22:59;;;;;;;;;;;14.70;99.90;;;;;;5023265;28;20325;-58
2022/05/08 09:25:44;;;;;;;;;;;14.70;99.90;;;;;;5021227;28;20016;-59
2022/05/08 09:28:10;;;;;;;;;;;14.80;99.90;;;;;;5020818;28;20346;-57
2022/05/08 09:30:51;;;;;;;;;;;14.80;99.90;;;;;;5023896;28;19917;-57
2022/05/08 09:33:21;;;;;;;;;;;14.80;99.90;;;;;;5025445;28;19955;-58
2022/05/08 09:35:46;;;;;;;;;;;14.90;99.90;;;;;;5023914;28;19936;-58
2022/05/08 09:38:12;;;;;;;;;;;15.00;99.90;;;;;;5022645;28;19999;-58
2022/05/08 09:40:37;;;;;;;;;;;15.00;99.90;;;;;;5022087;28;19960;-59
2022/05/08 09:43:03;;;;;;;;;;;15.00;99.90;;;;;;5021488;28;20270;-57
2022/05/08 09:45:28;;;;;;;;;;;15.10;99.90;;;;;;5024026;28;20352;-59
2022/05/08 09:47:55;;;;;;;;;;;15.20;99.90;;;;;;5021585;28;19921;-59
2022/05/08 09:50:20;;;;;;;;;;;15.20;99.90;;;;;;5016670;28;20023;-58
2022/05/08 09:52:46;;;;;;;;;;;15.30;99.90;;;;;;5023890;28;19961;-58
2022/05/08 09:55:12;;;;;;;;;;;15.30;99.90;;;;;;5020128;28;19968;-53
2022/05/08 09:57:41;;;;;;;;;;;15.30;99.90;;;;;;5021090;28;19921;-56
2022/05/08 10:00:08;;;;;;;;;;;15.30;99.90;;;;;;5024650;28;20299;-57
2022/05/08 10:02:39;;;;;;;;;;;15.40;99.90;;;;;;5024925;28;19951;-58
2022/05/08 10:05:05;;;;;;;;;;;15.60;99.90;;;;;;5019423;28;19917;-58
2022/05/08 10:07:31;;;;;;;;;;;15.70;99.90;;;;;;5017557;28;19923;-56
2022/05/08 10:15:31;;;;;;;;;;;15.70;99.90;;;;;;5023309;28;19928;-55
2022/05/08 10:18:15;;;;;;;;;;;15.80;99.90;;;;;;5020603;28;20058;-59
2022/05/08 10:20:59;;;;;;;;;;;15.80;99.90;;;;;;5024738;28;19922;-60
2022/05/08 10:23:45;;;;;;;;;;;15.90;99.90;;;;;;5023275;28;19921;-58
2022/05/08 10:26:21;;;;;;;;;;;15.90;99.90;;;;;;5019694;28;19913;-59
2022/05/08 10:29:01;;;;;;;;;;;16.00;99.90;;;;;;5021193;28;19913;-58
2022/05/08 10:31:43;;;;;;;;;;;16.00;99.90;;;;;;5014754;28;19928;-59
2022/05/08 10:34:09;;;;;;;;;;;16.10;99.90;;;;;;5018670;28;19917;-58
2022/05/08 10:36:34;;;;;;;;;;;16.00;99.90;;;;;;5028661;28;19956;-58
2022/05/08 10:39:18;;;;;;;;;;;16.10;99.90;;;;;;5018859;28;19968;-59
2022/05/08 10:41:44;;;;;;;;;;;16.20;99.90;;;;;;5017974;28;19921;-55
2022/05/08 10:44:29;;;;;;;;;;;16.20;99.90;;;;;;5023888;28;19912;-59
2022/05/08 10:47:14;;;;;;;;;;;16.30;99.90;;;;;;5021507;28;19913;-55
2022/05/08 10:49:40;;;;;;;;;;;16.40;99.90;;;;;;5013338;28;19925;-59
2022/05/08 10:52:08;;;;;;;;;;;16.40;99.90;;;;;;5022026;28;19914;-58
2022/05/08 10:54:34;;;;;;;;;;;16.40;99.90;;;;;;5022448;28;19913;-57
2022/05/08 10:56:59;;;;;;;;;;;16.40;99.90;;;;;;5019992;28;19924;-58
2022/05/08 10:59:43;;;;;;;;;;;16.50;99.90;;;;;;5020443;28;19935;-59
2022/05/08 11:02:09;;;;;;;;;;;16.60;99.90;;;;;;5025703;28;19924;-55
2022/05/08 11:04:49;;;;;;;;;;;16.70;99.90;;;;;;5016486;28;20012;-58
2022/05/08 11:07:21;;;;;;;;;;;16.80;99.90;;;;;;5021280;28;19914;-58
2022/05/08 11:09:47;;;;;;;;;;;16.80;99.90;;;;;;5027608;28;19917;-54
2022/05/08 11:12:13;;;;;;;;;;;16.80;99.90;;;;;;5020517;28;19913;-56
2022/05/08 11:14:39;;;;;;;;;;;16.80;99.90;;;;;;5021071;28;20440;-60
2022/05/08 11:17:17;;;;;;;;;;;16.70;99.90;;;;;;5027235;28;19916;-59
2022/05/08 11:19:52;;;;;;;;;;;16.70;99.90;;;;;;5021308;28;19917;-55
2022/05/08 11:22:17;;;;;;;;;;;16.80;99.90;;;;;;5019738;28;19921;-53
2022/05/08 11:24:45;;;;;;;;;;;16.80;99.90;;;;;;5027221;28;19959;-56
2022/05/08 11:27:14;;;;;;;;;;;16.90;99.90;;;;;;5026551;28;20382;-59
2022/05/08 11:29:46;;;;;;;;;;;16.90;99.90;;;;;;5026843;28;19918;-58
2022/05/08 11:38:03;;;;;;;;;;;17.10;99.90;;;;;;5023796;28;20066;-58
2022/05/08 11:40:30;;;;;;;;;;;17.10;99.90;;;;;;5018386;28;19925;-59
2022/05/08 11:42:55;;;;;;;;;;;17.10;99.90;;;;;;5024818;28;19921;-58
2022/05/08 11:45:21;;;;;;;;;;;17.10;99.90;;;;;;5030100;28;20293;-58
2022/05/08 11:47:53;;;;;;;;;;;17.10;99.90;;;;;;5027431;28;19928;-56
2022/05/08 11:50:19;;;;;;;;;;;17.20;99.90;;;;;;5020321;28;19917;-58
2022/05/08 11:52:45;;;;;;;;;;;17.20;99.90;;;;;;5022874;28;19936;-55
2022/05/08 11:55:10;;;;;;;;;;;17.30;99.90;;;;;;5023612;28;19917;-56
2022/05/08 11:57:43;;;;;;;;;;;17.30;99.90;;;;;;5024062;28;19924;-57
2022/05/08 12:00:10;;;;;;;;;;;17.30;99.90;;;;;;5024759;28;19917;-58
2022/05/08 12:02:39;;;;;;;;;;;17.30;99.90;;;;;;5027662;28;19945;-58
2022/05/08 12:05:05;;;;;;;;;;;17.30;99.90;;;;;;5021918;28;19917;-58
2022/05/08 12:07:38;;;;;;;;;;;17.40;99.90;;;;;;5020487;28;19917;-58
2022/05/08 12:10:04;;;;;;;;;;;17.40;99.90;;;;;;5026635;28;20373;-58
2022/05/08 12:12:36;;;;;;;;;;;17.40;99.90;;;;;;5023361;28;19928;-58
2022/05/08 12:15:07;;;;;;;;;;;17.40;99.90;;;;;;5027077;28;20380;-56
2022/05/08 12:17:39;;;;;;;;;;;17.50;99.90;;;;;;5026263;28;19913;-57
2022/05/08 12:20:08;;;;;;;;;;;17.60;99.90;;;;;;5026523;28;19913;-59
2022/05/08 12:22:34;;;;;;;;;;;17.60;99.90;;;;;;5023657;28;20004;-57
2022/05/08 12:25:00;;;;;;;;;;;17.60;99.50;;;;;;5024767;28;20048;-59
2022/05/08 12:27:25;;;;;;;;;;;17.70;99.90;;;;;;5025170;28;19913;-54
2022/05/08 12:29:53;;;;;;;;;;;17.70;99.90;;;;;;5026341;28;19953;-58
2022/05/08 12:32:20;;;;;;;;;;;17.80;99.90;;;;;;5023073;28;20064;-57
2022/05/08 12:34:46;;;;;;;;;;;18.00;99.90;;;;;;5020532;28;19920;-57
2022/05/08 12:37:12;;;;;;;;;;;18.10;99.90;;;;;;5020336;28;20393;-59
2022/05/08 12:39:38;;;;;;;;;;;18.20;99.90;;;;;;5026019;28;19917;-57
2022/05/08 12:42:04;;;;;;;;;;;18.30;99.90;;;;;;5023316;28;19928;-57
2022/05/08 12:44:29;;;;;;;;;;;18.30;99.90;;;;;;5026475;28;19975;-58
2022/05/08 12:46:56;;;;;;;;;;;18.30;99.80;;;;;;5020064;28;20244;-59
2022/05/08 12:49:21;;;;;;;;;;;18.40;99.90;;;;;;5015778;28;19944;-57
2022/05/08 12:51:47;;;;;;;;;;;18.50;98.70;;;;;;5024915;28;20282;-56
2022/05/08 12:54:13;;;;;;;;;;;18.50;98.40;;;;;;5021459;28;19921;-54
2022/05/08 12:56:38;;;;;;;;;;;18.50;98.80;;;;;;5023459;28;19914;-57
2022/05/08 13:01:51;;;;;;;;;;;18.60;98.50;;;;;;5021608;28;19931;-58
2022/05/08 13:04:17;;;;;;;;;;;18.70;98.50;;;;;;5019122;28;20011;-58
2022/05/08 13:06:43;;;;;;;;;;;18.70;97.10;;;;;;5025475;28;20350;-59
2022/05/08 13:09:09;;;;;;;;;;;18.60;96.20;;;;;;5023076;28;19917;-59
2022/05/08 13:11:35;;;;;;;;;;;18.60;97.00;;;;;;5022623;28;20378;-58
2022/05/08 13:14:01;;;;;;;;;;;18.60;97.60;;;;;;5018712;28;20020;-59
2022/05/08 13:16:26;;;;;;;;;;;18.70;96.70;;;;;;5021604;28;19932;-59
2022/05/08 13:18:52;;;;;;;;;;;18.90;96.20;;;;;;5024408;28;19913;-59
2022/05/08 13:21:18;;;;;;;;;;;18.90;96.60;;;;;;5030711;28;20031;-58
2022/05/08 13:23:43;;;;;;;;;;;18.90;96.90;;;;;;5053813;28;19917;-58
2022/05/08 13:26:09;;;;;;;;;;;19.00;96.70;;;;;;5023723;28;19912;-58
2022/05/08 13:28:34;;;;;;;;;;;19.10;97.10;;;;;;5021375;28;19921;-56
2022/05/08 13:31:00;;;;;;;;;;;19.10;97.00;;;;;;5025909;28;19921;-57
2022/05/08 13:33:26;;;;;;;;;;;19.10;96.70;;;;;;5024759;28;20285;-54
2022/05/08 13:35:51;;;;;;;;;;;19.20;96.10;;;;;;5023613;28;19956;-54
2022/05/08 13:38:18;;;;;;;;;;;19.20;96.00;;;;;;5027707;28;19919;-56
2022/05/08 13:40:44;;;;;;;;;;;19.20;95.80;;;;;;5017085;28;20560;-57
2022/05/08 13:43:10;;;;;;;;;;;19.20;95.40;;;;;;5022369;28;20020;-57
2022/05/08 13:45:35;;;;;;;;;;;19.30;95.60;;;;;;5026231;28;19916;-57
2022/05/08 13:48:01;;;;;;;;;;;19.40;94.70;;;;;;5022405;28;20055;-57
2022/05/08 13:50:26;;;;;;;;;;;19.40;95.10;;;;;;5019634;28;20275;-55
2022/05/08 13:52:52;;;;;;;;;;;19.50;95.10;;;;;;5022471;28;20008;-56
2022/05/08 13:55:18;;;;;;;;;;;19.40;94.80;;;;;;5025382;28;19917;-57
2022/05/08 13:57:43;;;;;;;;;;;19.60;93.90;;;;;;5019236;28;19967;-57
2022/05/08 14:00:16;;;;;;;;;;;19.50;92.70;;;;;;5023211;28;19917;-58
2022/05/08 14:02:42;;;;;;;;;;;19.60;93.70;;;;;;5024636;28;19988;-57
2022/05/08 14:05:08;;;;;;;;;;;19.60;93.00;;;;;;5020728;28;20263;-56
2022/05/08 14:07:35;;;;;;;;;;;19.60;92.90;;;;;;5019795;28;19966;-58
2022/05/08 14:10:02;;;;;;;;;;;19.60;92.60;;;;;;5027189;28;19921;-57
2022/05/08 14:12:27;;;;;;;;;;;19.70;92.30;;;;;;5023776;28;19917;-55
2022/05/08 14:14:53;;;;;;;;;;;19.70;92.20;;;;;;5022461;28;19913;-56
2022/05/08 14:17:19;;;;;;;;;;;19.80;92.60;;;;;;5024362;28;20429;-53
2022/05/08 14:19:44;;;;;;;;;;;19.80;92.20;;;;;;5018459;28;19917;-56
2022/05/08 14:22:09;;;;;;;;;;;19.80;92.00;;;;;;5023728;28;19983;-57
2022/05/08 14:24:35;;;;;;;;;;;19.80;92.00;;;;;;5029112;28;20301;-57
2022/05/08 14:27:01;;;;;;;;;;;19.80;92.50;;;;;;5017318;28;19943;-57
2022/05/08 14:29:26;;;;;;;;;;;19.90;92.30;;;;;;5024908;28;19912;-58
2022/05/08 14:37:21;;;;;;;;;;;19.90;91.40;;;;;;5018400;28;20001;-57
2022/05/08 14:39:46;;;;;;;;;;;19.90;91.80;;;;;;5026618;28;19992;-58
2022/05/08 14:42:11;;;;;;;;;;;20.00;91.40;;;;;;5024588;28;19974;-57
2022/05/08 14:44:37;;;;;;;;;;;20.00;91.20;;;;;;5021300;28;19913;-56
2022/05/08 14:47:03;;;;;;;;;;;20.10;91.10;;;;;;5022125;28;19929;-57
2022/05/08 14:49:28;;;;;;;;;;;20.20;90.90;;;;;;5014965;28;19960;-58
2022/05/08 14:51:54;;;;;;;;;;;20.20;89.60;;;;;;5023034;28;19917;-58